Blue Ridge, New York
Current Conditions -  °F | °C
As of 12:15 AM on Sunday 26 Oct 2014 (Local Time) from K6B0 Reporting Station
Overcast Overcast  
Wind Chill: 51°   Ceiling: 7500
Heat Index: 51°   Visibility: 10mi
Dew Point: 49°   Wind: 3mph
Humidity: 92%   Direction: 150°SSE
Pressure: 29.46"   Gusts: NA
Location:  43.8504°N, 73.7678°W
Report Text: K6B0 260415Z AUTO 15003KT 10SM SCT065 OVC075 11/09 A2946 RMK AO2 T01070094
Loading
Personal Weather Stations






























Interactive Weather Map New forecast layout! Learn more

10-Day Weather Forecast

Advertisements
Track Severe Weather on mobile